KFEP/FEP METAR and TAF weather

Enter ICAO airport designator
Station Type Date Time Source
KFEP METAR 2022/01/29 00:55 UTC NOAA

KFEP 290055Z AUTO 29003KT 10SM BKN100 M12/M17 A3036 RMK AO2 T11161166


Station Type Date Time Source
KFEP Decoded METAR 2022/01/29 00:55 UTC NOAA

Freeport, Albertus Airport, IL, United States (KFEP) 42-14-47N 089-34-56W
Jan 28, 2022 - 07:55 PM EST / 2022.01.29 0055 UTC
Wind: from the WNW (290 degrees) at 3 MPH (3 KT):0
Visibility: 10 mile(s):0
Sky conditions: mostly cloudy
Temperature: 11.1 F (-11.6 C)
Dew Point: 2.1 F (-16.6 C)
Relative Humidity: 66%
Pressure (altimeter): 30.36 in. Hg (1028 hPa)
ob: KFEP 290055Z AUTO 29003KT 10SM BKN100 M12/M17 A3036 RMK AO2 T11161166
cycle: 1

Station Type Date Time Source
KFEP TAF UTC NOAA

Error!

Example: see airport list